METAR Data
IDs: Format: Raw Decoded Include TAF

Data at: 1427 UTC 27 Nov 2021

EDDM 271420Z 22007KT 9999 FEW022 BKN042 04/01 Q0993 NOSIG